sensor_id;sensor_type;location;lat;lon;timestamp;temperature;humidity
22738;DHT22;11536;50.860;4.286;2024-03-08T00:00:18;7.10;99.90
22738;DHT22;11536;50.860;4.286;2024-03-08T00:02:45;7.10;99.90
22738;DHT22;11536;50.860;4.286;2024-03-08T00:05:12;7.10;99.90
22738;DHT22;11536;50.860;4.286;2024-03-08T00:07:38;7.10;99.90
22738;DHT22;11536;50.860;4.286;2024-03-08T00:10:05;7.10;99.90
22738;DHT22;11536;50.860;4.286;2024-03-08T00:12:31;7.10;99.90
22738;DHT22;11536;50.860;4.286;2024-03-08T00:14:57;7.10;99.90
22738;DHT22;11536;50.860;4.286;2024-03-08T00:17:23;7.00;99.90
22738;DHT22;11536;50.860;4.286;2024-03-08T00:19:49;7.00;99.90
22738;DHT22;11536;50.860;4.286;2024-03-08T00:22:18;6.90;99.90
22738;DHT22;11536;50.860;4.286;2024-03-08T00:24:44;6.90;99.90
22738;DHT22;11536;50.860;4.286;2024-03-08T00:27:10;6.90;99.90
22738;DHT22;11536;50.860;4.286;2024-03-08T00:29:37;6.80;99.90
22738;DHT22;11536;50.860;4.286;2024-03-08T00:32:04;6.80;99.90
22738;DHT22;11536;50.860;4.286;2024-03-08T00:34:30;6.80;99.90
22738;DHT22;11536;50.860;4.286;2024-03-08T00:36:57;6.70;99.90
22738;DHT22;11536;50.860;4.286;2024-03-08T00:39:23;6.70;99.90
22738;DHT22;11536;50.860;4.286;2024-03-08T00:41:49;6.70;99.90
22738;DHT22;11536;50.860;4.286;2024-03-08T00:44:15;6.70;99.90
22738;DHT22;11536;50.860;4.286;2024-03-08T00:46:40;6.70;99.90
22738;DHT22;11536;50.860;4.286;2024-03-08T00:49:06;6.60;99.90
22738;DHT22;11536;50.860;4.286;2024-03-08T00:51:32;6.60;99.90
22738;DHT22;11536;50.860;4.286;2024-03-08T00:53:58;6.50;99.90
22738;DHT22;11536;50.860;4.286;2024-03-08T00:56:23;6.50;99.90
22738;DHT22;11536;50.860;4.286;2024-03-08T00:58:50;6.50;99.90
22738;DHT22;11536;50.860;4.286;2024-03-08T01:01:18;6.40;99.90
22738;DHT22;11536;50.860;4.286;2024-03-08T01:03:44;6.40;99.90
22738;DHT22;11536;50.860;4.286;2024-03-08T01:06:09;6.40;99.90
22738;DHT22;11536;50.860;4.286;2024-03-08T01:08:37;6.40;99.90
22738;DHT22;11536;50.860;4.286;2024-03-08T01:11:04;6.40;99.90
22738;DHT22;11536;50.860;4.286;2024-03-08T01:13:30;6.40;99.90
22738;DHT22;11536;50.860;4.286;2024-03-08T01:15:56;6.40;99.90
22738;DHT22;11536;50.860;4.286;2024-03-08T01:18:22;6.30;99.90
22738;DHT22;11536;50.860;4.286;2024-03-08T01:20:47;6.30;99.90
22738;DHT22;11536;50.860;4.286;2024-03-08T01:23:13;6.30;99.90
22738;DHT22;11536;50.860;4.286;2024-03-08T01:25:39;6.30;99.90
22738;DHT22;11536;50.860;4.286;2024-03-08T01:28:07;6.20;99.90
22738;DHT22;11536;50.860;4.286;2024-03-08T01:30:32;6.20;99.90
22738;DHT22;11536;50.860;4.286;2024-03-08T01:33:00;6.20;99.90
22738;DHT22;11536;50.860;4.286;2024-03-08T01:35:25;6.10;99.90
22738;DHT22;11536;50.860;4.286;2024-03-08T01:37:52;6.10;99.90
22738;DHT22;11536;50.860;4.286;2024-03-08T01:40:18;6.10;99.90
22738;DHT22;11536;50.860;4.286;2024-03-08T01:42:44;6.10;99.90
22738;DHT22;11536;50.860;4.286;2024-03-08T01:45:10;6.10;99.90
22738;DHT22;11536;50.860;4.286;2024-03-08T01:47:37;6.00;99.90
22738;DHT22;11536;50.860;4.286;2024-03-08T01:50:03;6.00;99.90
22738;DHT22;11536;50.860;4.286;2024-03-08T01:52:34;6.00;99.90
22738;DHT22;11536;50.860;4.286;2024-03-08T01:55:01;6.00;99.90
22738;DHT22;11536;50.860;4.286;2024-03-08T01:57:28;6.00;99.90
22738;DHT22;11536;50.860;4.286;2024-03-08T01:59:56;5.90;99.90
22738;DHT22;11536;50.860;4.286;2024-03-08T02:02:22;5.90;99.90
22738;DHT22;11536;50.860;4.286;2024-03-08T02:04:48;5.90;99.90
22738;DHT22;11536;50.860;4.286;2024-03-08T02:07:14;5.90;99.90
22738;DHT22;11536;50.860;4.286;2024-03-08T02:09:40;5.90;99.90
22738;DHT22;11536;50.860;4.286;2024-03-08T02:12:06;5.90;99.90
22738;DHT22;11536;50.860;4.286;2024-03-08T02:14:33;5.80;99.90
22738;DHT22;11536;50.860;4.286;2024-03-08T02:17:02;5.80;99.90
22738;DHT22;11536;50.860;4.286;2024-03-08T02:19:28;5.80;99.90
22738;DHT22;11536;50.860;4.286;2024-03-08T02:21:54;5.80;99.90
22738;DHT22;11536;50.860;4.286;2024-03-08T02:24:19;5.80;99.90
22738;DHT22;11536;50.860;4.286;2024-03-08T02:26:45;5.80;99.90
22738;DHT22;11536;50.860;4.286;2024-03-08T02:29:11;5.80;99.90
22738;DHT22;11536;50.860;4.286;2024-03-08T02:31:38;5.80;99.90
22738;DHT22;11536;50.860;4.286;2024-03-08T02:34:04;5.80;99.90
22738;DHT22;11536;50.860;4.286;2024-03-08T02:36:30;5.80;99.90
22738;DHT22;11536;50.860;4.286;2024-03-08T02:39:01;5.80;99.90
22738;DHT22;11536;50.860;4.286;2024-03-08T02:41:27;5.80;99.90
22738;DHT22;11536;50.860;4.286;2024-03-08T02:43:53;5.80;99.90
22738;DHT22;11536;50.860;4.286;2024-03-08T02:46:20;5.70;99.90
22738;DHT22;11536;50.860;4.286;2024-03-08T02:48:46;5.70;99.90
22738;DHT22;11536;50.860;4.286;2024-03-08T02:51:12;5.70;99.90
22738;DHT22;11536;50.860;4.286;2024-03-08T02:53:39;5.70;99.90
22738;DHT22;11536;50.860;4.286;2024-03-08T02:56:04;5.70;99.90
22738;DHT22;11536;50.860;4.286;2024-03-08T02:58:34;5.60;99.90
22738;DHT22;11536;50.860;4.286;2024-03-08T03:00:59;5.60;99.90
22738;DHT22;11536;50.860;4.286;2024-03-08T03:03:25;5.60;99.90
22738;DHT22;11536;50.860;4.286;2024-03-08T03:05:52;5.60;99.90
22738;DHT22;11536;50.860;4.286;2024-03-08T03:08:21;5.60;99.90
22738;DHT22;11536;50.860;4.286;2024-03-08T03:10:46;5.60;99.90
22738;DHT22;11536;50.860;4.286;2024-03-08T03:13:12;5.60;99.90
22738;DHT22;11536;50.860;4.286;2024-03-08T03:15:39;5.50;99.90
22738;DHT22;11536;50.860;4.286;2024-03-08T03:18:07;5.50;99.90
22738;DHT22;11536;50.860;4.286;2024-03-08T03:20:33;5.50;99.90
22738;DHT22;11536;50.860;4.286;2024-03-08T03:23:02;5.40;99.90
22738;DHT22;11536;50.860;4.286;2024-03-08T03:25:28;5.40;99.90
22738;DHT22;11536;50.860;4.286;2024-03-08T03:27:59;5.40;99.90
22738;DHT22;11536;50.860;4.286;2024-03-08T03:30:25;5.40;99.90
22738;DHT22;11536;50.860;4.286;2024-03-08T03:32:59;5.30;99.90
22738;DHT22;11536;50.860;4.286;2024-03-08T03:35:27;5.40;99.90
22738;DHT22;11536;50.860;4.286;2024-03-08T03:37:52;5.40;99.90
22738;DHT22;11536;50.860;4.286;2024-03-08T03:40:30;5.30;99.90
22738;DHT22;11536;50.860;4.286;2024-03-08T03:42:56;5.20;99.90
22738;DHT22;11536;50.860;4.286;2024-03-08T03:45:25;5.20;99.90
22738;DHT22;11536;50.860;4.286;2024-03-08T03:47:51;5.20;99.90
22738;DHT22;11536;50.860;4.286;2024-03-08T03:50:18;5.20;99.90
22738;DHT22;11536;50.860;4.286;2024-03-08T03:52:45;5.20;99.90
22738;DHT22;11536;50.860;4.286;2024-03-08T03:55:11;5.20;99.90
22738;DHT22;11536;50.860;4.286;2024-03-08T03:57:37;5.20;99.90
22738;DHT22;11536;50.860;4.286;2024-03-08T04:00:04;5.20;99.90
22738;DHT22;11536;50.860;4.286;2024-03-08T04:02:30;5.20;99.90
22738;DHT22;11536;50.860;4.286;2024-03-08T04:04:56;5.20;99.90
22738;DHT22;11536;50.860;4.286;2024-03-08T04:07:21;5.20;99.90
22738;DHT22;11536;50.860;4.286;2024-03-08T04:09:47;5.10;99.90
22738;DHT22;11536;50.860;4.286;2024-03-08T04:12:13;5.10;99.90
22738;DHT22;11536;50.860;4.286;2024-03-08T04:14:42;5.10;99.90
22738;DHT22;11536;50.860;4.286;2024-03-08T04:17:08;5.10;99.90
22738;DHT22;11536;50.860;4.286;2024-03-08T04:19:37;5.10;99.90
22738;DHT22;11536;50.860;4.286;2024-03-08T04:22:03;5.10;99.90
22738;DHT22;11536;50.860;4.286;2024-03-08T04:24:29;5.10;99.90
22738;DHT22;11536;50.860;4.286;2024-03-08T04:26:56;5.10;99.90
22738;DHT22;11536;50.860;4.286;2024-03-08T04:29:23;5.00;99.90
22738;DHT22;11536;50.860;4.286;2024-03-08T04:31:48;5.00;99.90
22738;DHT22;11536;50.860;4.286;2024-03-08T04:34:14;5.00;99.90
22738;DHT22;11536;50.860;4.286;2024-03-08T04:36:40;5.00;99.90
22738;DHT22;11536;50.860;4.286;2024-03-08T04:39:06;5.00;99.90
22738;DHT22;11536;50.860;4.286;2024-03-08T04:41:35;5.00;99.90
22738;DHT22;11536;50.860;4.286;2024-03-08T04:44:02;5.00;99.90
22738;DHT22;11536;50.860;4.286;2024-03-08T04:46:28;5.00;99.90
22738;DHT22;11536;50.860;4.286;2024-03-08T04:48:54;4.90;99.90
22738;DHT22;11536;50.860;4.286;2024-03-08T04:51:19;4.90;99.90
22738;DHT22;11536;50.860;4.286;2024-03-08T04:53:45;4.90;99.90
22738;DHT22;11536;50.860;4.286;2024-03-08T04:56:10;4.90;99.90
22738;DHT22;11536;50.860;4.286;2024-03-08T04:58:36;4.90;99.90
22738;DHT22;11536;50.860;4.286;2024-03-08T05:01:02;4.90;99.90
22738;DHT22;11536;50.860;4.286;2024-03-08T05:03:28;4.90;99.90
22738;DHT22;11536;50.860;4.286;2024-03-08T05:05:54;4.90;99.90
22738;DHT22;11536;50.860;4.286;2024-03-08T05:08:19;4.80;99.90
22738;DHT22;11536;50.860;4.286;2024-03-08T05:10:45;4.80;99.90
22738;DHT22;11536;50.860;4.286;2024-03-08T05:13:12;4.80;99.90
22738;DHT22;11536;50.860;4.286;2024-03-08T05:15:38;4.80;99.90
22738;DHT22;11536;50.860;4.286;2024-03-08T05:18:04;4.80;99.90
22738;DHT22;11536;50.860;4.286;2024-03-08T05:20:30;4.80;99.90
22738;DHT22;11536;50.860;4.286;2024-03-08T05:22:56;4.70;99.90
22738;DHT22;11536;50.860;4.286;2024-03-08T05:25:28;4.80;99.90
22738;DHT22;11536;50.860;4.286;2024-03-08T05:27:54;4.70;99.90
22738;DHT22;11536;50.860;4.286;2024-03-08T05:30:20;4.80;99.90
22738;DHT22;11536;50.860;4.286;2024-03-08T05:32:47;4.70;99.90
22738;DHT22;11536;50.860;4.286;2024-03-08T05:35:13;4.70;99.90
22738;DHT22;11536;50.860;4.286;2024-03-08T05:37:41;4.70;99.90
22738;DHT22;11536;50.860;4.286;2024-03-08T05:40:08;4.80;99.90
22738;DHT22;11536;50.860;4.286;2024-03-08T05:42:37;4.70;99.90
22738;DHT22;11536;50.860;4.286;2024-03-08T05:45:06;4.70;99.90
22738;DHT22;11536;50.860;4.286;2024-03-08T05:47:32;4.70;99.90
22738;DHT22;11536;50.860;4.286;2024-03-08T05:50:01;4.70;99.90
22738;DHT22;11536;50.860;4.286;2024-03-08T05:52:27;4.70;99.90
22738;DHT22;11536;50.860;4.286;2024-03-08T05:54:52;4.70;99.90
22738;DHT22;11536;50.860;4.286;2024-03-08T05:57:18;4.70;99.90
22738;DHT22;11536;50.860;4.286;2024-03-08T05:59:44;4.70;99.90
22738;DHT22;11536;50.860;4.286;2024-03-08T06:02:10;4.70;99.90
22738;DHT22;11536;50.860;4.286;2024-03-08T06:04:35;4.60;99.90
22738;DHT22;11536;50.860;4.286;2024-03-08T06:07:01;4.70;99.90
22738;DHT22;11536;50.860;4.286;2024-03-08T06:09:29;4.60;99.90
22738;DHT22;11536;50.860;4.286;2024-03-08T06:11:55;4.70;99.90
22738;DHT22;11536;50.860;4.286;2024-03-08T06:14:22;4.60;99.90
22738;DHT22;11536;50.860;4.286;2024-03-08T06:16:48;4.60;99.90
22738;DHT22;11536;50.860;4.286;2024-03-08T06:19:16;4.60;99.90
22738;DHT22;11536;50.860;4.286;2024-03-08T06:21:41;4.60;99.90
22738;DHT22;11536;50.860;4.286;2024-03-08T06:24:07;4.60;99.90
22738;DHT22;11536;50.860;4.286;2024-03-08T06:26:32;4.70;99.90
22738;DHT22;11536;50.860;4.286;2024-03-08T06:28:58;4.60;99.90
22738;DHT22;11536;50.860;4.286;2024-03-08T06:31:24;4.70;99.90
22738;DHT22;11536;50.860;4.286;2024-03-08T06:33:49;4.70;99.90
22738;DHT22;11536;50.860;4.286;2024-03-08T06:36:18;4.70;99.90
22738;DHT22;11536;50.860;4.286;2024-03-08T06:38:45;4.70;99.90
22738;DHT22;11536;50.860;4.286;2024-03-08T06:41:11;4.60;99.90
22738;DHT22;11536;50.860;4.286;2024-03-08T06:43:43;4.70;99.90
22738;DHT22;11536;50.860;4.286;2024-03-08T06:46:09;4.70;99.90
22738;DHT22;11536;50.860;4.286;2024-03-08T06:48:35;4.60;99.90
22738;DHT22;11536;50.860;4.286;2024-03-08T06:51:03;4.70;99.90
22738;DHT22;11536;50.860;4.286;2024-03-08T06:53:29;4.70;99.90
22738;DHT22;11536;50.860;4.286;2024-03-08T06:55:55;4.80;99.90
22738;DHT22;11536;50.860;4.286;2024-03-08T06:58:20;4.90;99.90
22738;DHT22;11536;50.860;4.286;2024-03-08T07:00:46;4.90;99.90
22738;DHT22;11536;50.860;4.286;2024-03-08T07:03:12;4.90;99.90
22738;DHT22;11536;50.860;4.286;2024-03-08T07:05:42;4.90;99.90
22738;DHT22;11536;50.860;4.286;2024-03-08T07:08:08;5.00;99.90
22738;DHT22;11536;50.860;4.286;2024-03-08T07:10:33;5.10;99.90
22738;DHT22;11536;50.860;4.286;2024-03-08T07:13:00;5.20;99.90
22738;DHT22;11536;50.860;4.286;2024-03-08T07:15:27;5.20;99.90
22738;DHT22;11536;50.860;4.286;2024-03-08T07:17:58;5.30;99.90
22738;DHT22;11536;50.860;4.286;2024-03-08T07:20:25;5.30;99.90
22738;DHT22;11536;50.860;4.286;2024-03-08T07:22:50;5.30;99.90
22738;DHT22;11536;50.860;4.286;2024-03-08T07:25:17;5.30;99.90
22738;DHT22;11536;50.860;4.286;2024-03-08T07:27:53;5.30;99.90
22738;DHT22;11536;50.860;4.286;2024-03-08T07:30:23;5.30;99.90
22738;DHT22;11536;50.860;4.286;2024-03-08T07:33:07;5.40;99.90
22738;DHT22;11536;50.860;4.286;2024-03-08T07:35:33;5.40;99.90
22738;DHT22;11536;50.860;4.286;2024-03-08T07:38:09;5.40;99.90
22738;DHT22;11536;50.860;4.286;2024-03-08T07:40:38;5.40;99.90
22738;DHT22;11536;50.860;4.286;2024-03-08T07:43:07;5.50;99.90
22738;DHT22;11536;50.860;4.286;2024-03-08T07:45:33;5.50;99.90
22738;DHT22;11536;50.860;4.286;2024-03-08T07:47:58;5.50;99.90
22738;DHT22;11536;50.860;4.286;2024-03-08T07:50:24;5.50;99.90
22738;DHT22;11536;50.860;4.286;2024-03-08T07:52:49;5.40;99.90
22738;DHT22;11536;50.860;4.286;2024-03-08T07:55:15;5.50;99.90
22738;DHT22;11536;50.860;4.286;2024-03-08T07:57:41;5.50;99.90
22738;DHT22;11536;50.860;4.286;2024-03-08T08:00:08;5.50;99.90
22738;DHT22;11536;50.860;4.286;2024-03-08T08:02:35;5.50;99.90
22738;DHT22;11536;50.860;4.286;2024-03-08T08:05:01;5.60;99.90
22738;DHT22;11536;50.860;4.286;2024-03-08T08:08:02;5.60;99.90
22738;DHT22;11536;50.860;4.286;2024-03-08T08:10:32;5.60;99.90
22738;DHT22;11536;50.860;4.286;2024-03-08T08:12:59;5.60;99.90
22738;DHT22;11536;50.860;4.286;2024-03-08T08:15:26;5.70;99.90
22738;DHT22;11536;50.860;4.286;2024-03-08T08:17:53;5.60;99.90
22738;DHT22;11536;50.860;4.286;2024-03-08T08:20:23;5.70;99.90
22738;DHT22;11536;50.860;4.286;2024-03-08T08:23:00;5.70;99.90
22738;DHT22;11536;50.860;4.286;2024-03-08T08:25:29;5.80;99.90
22738;DHT22;11536;50.860;4.286;2024-03-08T08:27:55;5.80;99.90
22738;DHT22;11536;50.860;4.286;2024-03-08T08:30:21;5.90;99.90
22738;DHT22;11536;50.860;4.286;2024-03-08T08:32:50;5.90;99.90
22738;DHT22;11536;50.860;4.286;2024-03-08T08:35:18;6.00;99.90
22738;DHT22;11536;50.860;4.286;2024-03-08T08:37:46;6.00;99.90
22738;DHT22;11536;50.860;4.286;2024-03-08T08:40:13;6.10;99.90
22738;DHT22;11536;50.860;4.286;2024-03-08T08:42:43;6.10;99.90
22738;DHT22;11536;50.860;4.286;2024-03-08T08:45:09;6.10;99.90
22738;DHT22;11536;50.860;4.286;2024-03-08T08:47:38;6.10;99.90
22738;DHT22;11536;50.860;4.286;2024-03-08T08:50:04;6.10;99.90
22738;DHT22;11536;50.860;4.286;2024-03-08T08:52:33;6.10;99.90
22738;DHT22;11536;50.860;4.286;2024-03-08T08:55:00;6.20;99.90
22738;DHT22;11536;50.860;4.286;2024-03-08T08:57:25;6.30;99.90
22738;DHT22;11536;50.860;4.286;2024-03-08T08:59:52;6.40;99.90
22738;DHT22;11536;50.860;4.286;2024-03-08T09:02:18;6.50;99.90
22738;DHT22;11536;50.860;4.286;2024-03-08T09:04:46;6.60;99.90
22738;DHT22;11536;50.860;4.286;2024-03-08T09:07:13;6.60;99.90
22738;DHT22;11536;50.860;4.286;2024-03-08T09:09:39;6.60;99.90
22738;DHT22;11536;50.860;4.286;2024-03-08T09:12:05;6.60;99.90
22738;DHT22;11536;50.860;4.286;2024-03-08T09:14:30;6.70;99.90
22738;DHT22;11536;50.860;4.286;2024-03-08T09:16:56;6.80;99.90
22738;DHT22;11536;50.860;4.286;2024-03-08T09:19:21;6.80;99.90
22738;DHT22;11536;50.860;4.286;2024-03-08T09:21:50;6.90;99.90
22738;DHT22;11536;50.860;4.286;2024-03-08T09:24:16;6.90;99.90
22738;DHT22;11536;50.860;4.286;2024-03-08T09:26:42;6.90;99.90
22738;DHT22;11536;50.860;4.286;2024-03-08T09:29:08;7.00;99.90
22738;DHT22;11536;50.860;4.286;2024-03-08T09:31:36;7.10;99.90
22738;DHT22;11536;50.860;4.286;2024-03-08T09:34:03;7.10;99.90
22738;DHT22;11536;50.860;4.286;2024-03-08T09:36:29;7.10;99.90
22738;DHT22;11536;50.860;4.286;2024-03-08T09:38:55;7.10;99.90
22738;DHT22;11536;50.860;4.286;2024-03-08T09:41:21;7.20;99.90
22738;DHT22;11536;50.860;4.286;2024-03-08T09:43:46;7.30;99.90
22738;DHT22;11536;50.860;4.286;2024-03-08T09:46:12;7.30;99.90
22738;DHT22;11536;50.860;4.286;2024-03-08T09:48:39;7.40;99.90
22738;DHT22;11536;50.860;4.286;2024-03-08T09:51:07;7.50;99.90
22738;DHT22;11536;50.860;4.286;2024-03-08T09:53:33;7.50;99.90
22738;DHT22;11536;50.860;4.286;2024-03-08T09:55:59;7.60;99.90
22738;DHT22;11536;50.860;4.286;2024-03-08T09:58:24;7.70;99.90
22738;DHT22;11536;50.860;4.286;2024-03-08T10:00:53;7.70;99.90
22738;DHT22;11536;50.860;4.286;2024-03-08T10:03:22;7.80;99.90
22738;DHT22;11536;50.860;4.286;2024-03-08T10:05:47;7.80;99.90
22738;DHT22;11536;50.860;4.286;2024-03-08T10:08:14;7.90;99.90
22738;DHT22;11536;50.860;4.286;2024-03-08T10:10:39;7.90;99.90
22738;DHT22;11536;50.860;4.286;2024-03-08T10:13:06;8.00;99.90
22738;DHT22;11536;50.860;4.286;2024-03-08T10:15:32;8.00;99.90
22738;DHT22;11536;50.860;4.286;2024-03-08T10:18:01;8.10;99.90
22738;DHT22;11536;50.860;4.286;2024-03-08T10:20:31;8.10;99.90
22738;DHT22;11536;50.860;4.286;2024-03-08T10:23:00;8.20;99.90
22738;DHT22;11536;50.860;4.286;2024-03-08T10:25:28;8.20;99.90
22738;DHT22;11536;50.860;4.286;2024-03-08T10:27:56;8.30;99.90
22738;DHT22;11536;50.860;4.286;2024-03-08T10:30:21;8.40;99.90
22738;DHT22;11536;50.860;4.286;2024-03-08T10:32:48;8.50;99.90
22738;DHT22;11536;50.860;4.286;2024-03-08T10:35:14;8.60;99.90
22738;DHT22;11536;50.860;4.286;2024-03-08T10:37:46;8.60;99.90
22738;DHT22;11536;50.860;4.286;2024-03-08T10:40:19;8.60;99.90
22738;DHT22;11536;50.860;4.286;2024-03-08T10:42:55;8.60;99.90
22738;DHT22;11536;50.860;4.286;2024-03-08T10:45:39;8.70;99.90
22738;DHT22;11536;50.860;4.286;2024-03-08T10:48:34;8.70;99.90
22738;DHT22;11536;50.860;4.286;2024-03-08T10:51:02;8.70;99.90
22738;DHT22;11536;50.860;4.286;2024-03-08T10:53:29;8.70;99.90
22738;DHT22;11536;50.860;4.286;2024-03-08T10:55:57;8.80;99.90
22738;DHT22;11536;50.860;4.286;2024-03-08T10:58:24;8.80;99.90
22738;DHT22;11536;50.860;4.286;2024-03-08T11:00:53;8.90;99.90
22738;DHT22;11536;50.860;4.286;2024-03-08T11:06:17;9.10;99.90
22738;DHT22;11536;50.860;4.286;2024-03-08T11:08:44;9.20;99.90
22738;DHT22;11536;50.860;4.286;2024-03-08T11:11:33;9.30;99.90
22738;DHT22;11536;50.860;4.286;2024-03-08T11:14:03;9.40;99.90
22738;DHT22;11536;50.860;4.286;2024-03-08T11:19:00;9.40;99.90
22738;DHT22;11536;50.860;4.286;2024-03-08T11:21:32;9.40;99.90
22738;DHT22;11536;50.860;4.286;2024-03-08T11:24:12;9.40;99.90
22738;DHT22;11536;50.860;4.286;2024-03-08T11:26:39;9.50;99.90
22738;DHT22;11536;50.860;4.286;2024-03-08T11:34:33;9.70;99.90
22738;DHT22;11536;50.860;4.286;2024-03-08T11:36:59;9.80;99.90
22738;DHT22;11536;50.860;4.286;2024-03-08T11:39:26;9.80;99.90
22738;DHT22;11536;50.860;4.286;2024-03-08T11:41:54;9.90;99.90
22738;DHT22;11536;50.860;4.286;2024-03-08T11:44:20;9.90;99.90
22738;DHT22;11536;50.860;4.286;2024-03-08T11:46:46;9.90;99.90
22738;DHT22;11536;50.860;4.286;2024-03-08T11:49:15;10.00;99.90
22738;DHT22;11536;50.860;4.286;2024-03-08T11:51:41;10.10;99.90
22738;DHT22;11536;50.860;4.286;2024-03-08T11:54:11;10.20;99.90
22738;DHT22;11536;50.860;4.286;2024-03-08T11:56:38;10.30;99.90
22738;DHT22;11536;50.860;4.286;2024-03-08T11:59:04;10.30;99.90
22738;DHT22;11536;50.860;4.286;2024-03-08T12:01:30;10.40;99.90
22738;DHT22;11536;50.860;4.286;2024-03-08T12:03:57;10.40;99.90
22738;DHT22;11536;50.860;4.286;2024-03-08T12:06:27;10.50;99.90
22738;DHT22;11536;50.860;4.286;2024-03-08T12:08:52;10.60;99.90
22738;DHT22;11536;50.860;4.286;2024-03-08T12:11:22;10.50;99.90
22738;DHT22;11536;50.860;4.286;2024-03-08T12:13:51;10.60;99.90
22738;DHT22;11536;50.860;4.286;2024-03-08T12:16:19;10.70;99.90
22738;DHT22;11536;50.860;4.286;2024-03-08T12:18:47;10.70;99.90
22738;DHT22;11536;50.860;4.286;2024-03-08T12:21:14;10.80;99.90
22738;DHT22;11536;50.860;4.286;2024-03-08T12:23:44;10.80;99.90
22738;DHT22;11536;50.860;4.286;2024-03-08T12:28:42;11.10;99.90
22738;DHT22;11536;50.860;4.286;2024-03-08T12:31:11;11.20;99.90
22738;DHT22;11536;50.860;4.286;2024-03-08T12:33:50;11.20;99.90
22738;DHT22;11536;50.860;4.286;2024-03-08T12:36:16;11.30;99.90
22738;DHT22;11536;50.860;4.286;2024-03-08T12:38:48;11.40;99.90
22738;DHT22;11536;50.860;4.286;2024-03-08T12:41:18;11.50;99.90
22738;DHT22;11536;50.860;4.286;2024-03-08T12:43:45;11.70;99.90
22738;DHT22;11536;50.860;4.286;2024-03-08T12:46:20;11.80;99.90
22738;DHT22;11536;50.860;4.286;2024-03-08T12:48:46;11.90;99.90
22738;DHT22;11536;50.860;4.286;2024-03-08T12:51:13;12.00;99.90
22738;DHT22;11536;50.860;4.286;2024-03-08T12:53:39;12.20;99.90
22738;DHT22;11536;50.860;4.286;2024-03-08T12:56:10;12.30;99.90
22738;DHT22;11536;50.860;4.286;2024-03-08T12:58:36;12.40;99.90
22738;DHT22;11536;50.860;4.286;2024-03-08T13:01:03;12.60;99.90
22738;DHT22;11536;50.860;4.286;2024-03-08T13:03:30;12.60;99.90
22738;DHT22;11536;50.860;4.286;2024-03-08T13:05:57;12.50;99.90
22738;DHT22;11536;50.860;4.286;2024-03-08T13:08:22;12.60;99.90
22738;DHT22;11536;50.860;4.286;2024-03-08T13:10:50;12.70;99.90
22738;DHT22;11536;50.860;4.286;2024-03-08T13:13:16;12.80;99.90
22738;DHT22;11536;50.860;4.286;2024-03-08T13:15:42;12.90;99.90
22738;DHT22;11536;50.860;4.286;2024-03-08T13:18:08;13.00;99.90
22738;DHT22;11536;50.860;4.286;2024-03-08T13:20:35;13.20;99.90
22738;DHT22;11536;50.860;4.286;2024-03-08T13:23:04;13.20;99.90
22738;DHT22;11536;50.860;4.286;2024-03-08T13:25:33;13.30;99.90
22738;DHT22;11536;50.860;4.286;2024-03-08T13:27:59;13.30;99.90
22738;DHT22;11536;50.860;4.286;2024-03-08T13:30:26;13.60;99.90
22738;DHT22;11536;50.860;4.286;2024-03-08T13:32:55;13.70;99.90
22738;DHT22;11536;50.860;4.286;2024-03-08T13:35:20;13.60;99.90
22738;DHT22;11536;50.860;4.286;2024-03-08T13:37:53;13.50;99.90
22738;DHT22;11536;50.860;4.286;2024-03-08T13:40:19;13.50;99.90
22738;DHT22;11536;50.860;4.286;2024-03-08T13:42:46;13.50;99.90
22738;DHT22;11536;50.860;4.286;2024-03-08T13:45:12;13.60;99.90
22738;DHT22;11536;50.860;4.286;2024-03-08T13:47:39;13.70;99.90
22738;DHT22;11536;50.860;4.286;2024-03-08T13:50:10;13.70;99.90
22738;DHT22;11536;50.860;4.286;2024-03-08T13:52:39;13.90;99.90
22738;DHT22;11536;50.860;4.286;2024-03-08T13:55:05;13.90;99.90
22738;DHT22;11536;50.860;4.286;2024-03-08T13:57:32;14.00;99.90
22738;DHT22;11536;50.860;4.286;2024-03-08T13:59:58;14.10;99.90
22738;DHT22;11536;50.860;4.286;2024-03-08T14:02:24;14.10;99.90
22738;DHT22;11536;50.860;4.286;2024-03-08T14:04:54;14.00;99.90
22738;DHT22;11536;50.860;4.286;2024-03-08T14:07:20;13.90;99.90
22738;DHT22;11536;50.860;4.286;2024-03-08T14:09:46;14.00;99.90
22738;DHT22;11536;50.860;4.286;2024-03-08T14:12:12;14.10;99.90
22738;DHT22;11536;50.860;4.286;2024-03-08T14:14:40;14.30;99.90
22738;DHT22;11536;50.860;4.286;2024-03-08T14:17:06;14.30;99.90
22738;DHT22;11536;50.860;4.286;2024-03-08T14:19:35;14.40;99.90
22738;DHT22;11536;50.860;4.286;2024-03-08T14:22:00;14.40;99.90
22738;DHT22;11536;50.860;4.286;2024-03-08T14:24:32;14.30;99.90
22738;DHT22;11536;50.860;4.286;2024-03-08T14:27:01;14.30;99.90
22738;DHT22;11536;50.860;4.286;2024-03-08T14:29:28;14.30;99.90
22738;DHT22;11536;50.860;4.286;2024-03-08T14:31:55;14.40;99.90
22738;DHT22;11536;50.860;4.286;2024-03-08T14:34:27;14.40;99.90
22738;DHT22;11536;50.860;4.286;2024-03-08T14:36:55;14.30;99.90
22738;DHT22;11536;50.860;4.286;2024-03-08T14:39:20;14.10;99.90
22738;DHT22;11536;50.860;4.286;2024-03-08T14:41:50;14.00;99.90
22738;DHT22;11536;50.860;4.286;2024-03-08T14:44:19;14.00;99.90
22738;DHT22;11536;50.860;4.286;2024-03-08T14:46:45;13.80;99.90
22738;DHT22;11536;50.860;4.286;2024-03-08T14:49:11;13.80;99.90
22738;DHT22;11536;50.860;4.286;2024-03-08T14:51:37;13.80;99.90
22738;DHT22;11536;50.860;4.286;2024-03-08T14:54:02;13.80;99.90
22738;DHT22;11536;50.860;4.286;2024-03-08T14:56:32;13.90;99.90
22738;DHT22;11536;50.860;4.286;2024-03-08T14:58:58;13.90;99.90
22738;DHT22;11536;50.860;4.286;2024-03-08T15:01:25;13.90;99.90
22738;DHT22;11536;50.860;4.286;2024-03-08T15:03:55;14.00;99.90
22738;DHT22;11536;50.860;4.286;2024-03-08T15:06:21;14.00;99.90
22738;DHT22;11536;50.860;4.286;2024-03-08T15:08:47;14.00;99.90
22738;DHT22;11536;50.860;4.286;2024-03-08T15:11:13;13.90;99.90
22738;DHT22;11536;50.860;4.286;2024-03-08T15:13:50;13.90;99.90
22738;DHT22;11536;50.860;4.286;2024-03-08T15:16:19;13.80;99.90
22738;DHT22;11536;50.860;4.286;2024-03-08T15:18:48;13.80;99.90
22738;DHT22;11536;50.860;4.286;2024-03-08T15:21:17;13.70;99.90
22738;DHT22;11536;50.860;4.286;2024-03-08T15:23:45;13.80;99.90
22738;DHT22;11536;50.860;4.286;2024-03-08T15:26:16;13.80;99.90
22738;DHT22;11536;50.860;4.286;2024-03-08T15:28:43;13.80;99.90
22738;DHT22;11536;50.860;4.286;2024-03-08T15:31:11;13.80;99.90
22738;DHT22;11536;50.860;4.286;2024-03-08T15:33:39;13.80;99.90
22738;DHT22;11536;50.860;4.286;2024-03-08T15:36:14;13.70;99.90
22738;DHT22;11536;50.860;4.286;2024-03-08T15:38:41;13.70;99.90
22738;DHT22;11536;50.860;4.286;2024-03-08T15:41:09;13.70;99.90
22738;DHT22;11536;50.860;4.286;2024-03-08T15:43:41;13.70;99.90
22738;DHT22;11536;50.860;4.286;2024-03-08T15:46:10;13.80;99.90
22738;DHT22;11536;50.860;4.286;2024-03-08T15:48:37;13.80;99.90
22738;DHT22;11536;50.860;4.286;2024-03-08T15:51:04;13.80;99.90
22738;DHT22;11536;50.860;4.286;2024-03-08T15:53:33;13.70;99.90
22738;DHT22;11536;50.860;4.286;2024-03-08T15:56:03;13.70;99.90